Hercules I — SVA7380 — position and weather

sailwx.info

Track history (hours):
 
Tides and Currents Weather Stations Pressure Air Temp Water Temp Dewpoint Dewpoint Depression Visibility Wind Speed Wind Dir Waves Ship Positions

Hercules I

Last reported at 2018-Apr-16 17:35 UTC. Time now 2018-Apr-21 06:07 UTC.
Position N 38°11' E 024°07'.

Length 89 m; draft 5.5 m.

Type: Cargo ship. MMSI: 241503000.

Date/timePositionNaut miles runAvg speedWind from/ knotsBaromVisibWave heightAir tempDewpointWater temp
2018-Apr-16 17:35N 38°11' E 024°07'1 7.4
2018-Apr-16 17:29N 38°11' E 024°07'6 7.5
2018-Apr-16 16:40N 38°05' E 024°11'1 7.6
2018-Apr-16 16:30N 38°04' E 024°11'4 7.8
2018-Apr-16 16:00N 38°00' E 024°11'27 5.5
2018-Apr-16 10:59N 37°38' E 023°50'3 7.2
2018-Apr-16 10:30N 37°39' E 023°46'4 7.6
2018-Apr-16 10:00N 37°39' E 023°41'4 7.7
2018-Apr-16 09:30N 37°39' E 023°36'4 7.7
2018-Apr-16 09:00N 37°39' E 023°31'4 7.8
2018-Apr-16 08:29N 37°39' E 023°26'4 7.7
2018-Apr-16 08:00N 37°40' E 023°22'4 7.5
2018-Apr-16 07:30N 37°41' E 023°17'4 7.9
2018-Apr-16 07:00N 37°45' E 023°15'4 7.9
2018-Apr-16 06:30N 37°48' E 023°13'4 7.8
2018-Apr-16 06:00N 37°52' E 023°10'4 7.9
2018-Apr-16 05:30N 37°53' E 023°06'4 7.7
2018-Apr-16 05:00N 37°55' E 023°01'3 4.4
2018-Apr-16 04:19N 37°57' E 022°58'1 4.4
2018-Apr-16 04:00N 37°57' E 022°57'2 4.9
2018-Apr-16 03:30N 37°58' E 022°54'3 6.3
2018-Apr-16 03:00N 37°60' E 022°50'3 6.3
2018-Apr-16 02:30N 38°02' E 022°48'3 5.7
2018-Apr-16 01:54N 38°05' E 022°45'2 5.7
2018-Apr-16 01:29N 38°06' E 022°43'3 6.0
2018-Apr-16 01:00N 38°09' E 022°40'5 6.3
2018-Apr-16 00:14N 38°12' E 022°36'  
2018-Apr-13 11:36N 38°08' E 022°41'1 9.5
2018-Apr-13 11:29N 38°07' E 022°42'5 9.4
2018-Apr-13 10:59N 38°04' E 022°46'5 9.3
2018-Apr-13 10:30N 38°01' E 022°50'4 9.2
2018-Apr-13 10:00N 37°58' E 022°55'5 6.3
2018-Apr-13 09:13N 37°55' E 023°00'1 5.1
2018-Apr-13 09:01N 37°55' E 023°01'1 1.6
2018-Apr-13 08:31N 37°54' E 023°02'3 5.3
2018-Apr-13 08:00N 37°53' E 023°05'4 9.0
2018-Apr-13 07:31N 37°51' E 023°10'5 9.3
2018-Apr-13 07:00N 37°47' E 023°13'5 9.3
2018-Apr-13 06:30N 37°44' E 023°16'4 8.7
2018-Apr-13 06:00N 37°40' E 023°19'4 9.1
2018-Apr-13 05:31N 37°39' E 023°25'5 9.1
2018-Apr-13 05:00N 37°38' E 023°30'4 9.1
2018-Apr-13 04:30N 37°38' E 023°36'5 9.3
2018-Apr-13 04:01N 37°38' E 023°42'5 9.4
2018-Apr-13 03:30N 37°37' E 023°48'  
2018-Apr-10 11:50N 38°05' E 024°09'3 8.0
2018-Apr-10 11:27N 38°07' E 024°08'4 0.1
2018-Apr-09 02:02N 38°11' E 024°07'0 5.9
2018-Apr-09 02:01N 38°11' E 024°07'3 5.8
2018-Apr-09 01:30N 38°08' E 024°09'4 6.0
2018-Apr-09 00:55N 38°05' E 024°11'2 6.0
2018-Apr-09 00:30N 38°03' E 024°12'3 5.1
2018-Apr-09 00:00N 38°00' E 024°12'4 4.7
2018-Apr-08 23:12N 37°57' E 024°15'  
Track history (hours):
 
Tides and Currents Weather Stations Pressure Air Temp Water Temp Dewpoint Dewpoint Depression Visibility Wind Speed Wind Dir Waves Ship Positions

Hercules I

Last reported at 2018-Apr-16 17:35 UTC. Time now 2018-Apr-21 06:07 UTC.
Position N 38°11' E 024°07'.

Length 89 m; draft 5.5 m.

Type: Cargo ship. MMSI: 241503000.

Date/timePositionNaut miles runAvg speedWind from/ knotsBaromVisibWave heightAir tempDewpointWater temp
2018-Apr-16 17:35N 38°11' E 024°07'1 7.4
2018-Apr-16 17:29N 38°11' E 024°07'6 7.5
2018-Apr-16 16:40N 38°05' E 024°11'1 7.6
2018-Apr-16 16:30N 38°04' E 024°11'4 7.8
2018-Apr-16 16:00N 38°00' E 024°11'27 5.5
2018-Apr-16 10:59N 37°38' E 023°50'3 7.2
2018-Apr-16 10:30N 37°39' E 023°46'4 7.6
2018-Apr-16 10:00N 37°39' E 023°41'4 7.7
2018-Apr-16 09:30N 37°39' E 023°36'4 7.7
2018-Apr-16 09:00N 37°39' E 023°31'4 7.8
2018-Apr-16 08:29N 37°39' E 023°26'4 7.7
2018-Apr-16 08:00N 37°40' E 023°22'4 7.5
2018-Apr-16 07:30N 37°41' E 023°17'4 7.9
2018-Apr-16 07:00N 37°45' E 023°15'4 7.9
2018-Apr-16 06:30N 37°48' E 023°13'4 7.8
2018-Apr-16 06:00N 37°52' E 023°10'4 7.9
2018-Apr-16 05:30N 37°53' E 023°06'4 7.7
2018-Apr-16 05:00N 37°55' E 023°01'3 4.4
2018-Apr-16 04:19N 37°57' E 022°58'1 4.4
2018-Apr-16 04:00N 37°57' E 022°57'2 4.9
2018-Apr-16 03:30N 37°58' E 022°54'3 6.3
2018-Apr-16 03:00N 37°60' E 022°50'3 6.3
2018-Apr-16 02:30N 38°02' E 022°48'3 5.7
2018-Apr-16 01:54N 38°05' E 022°45'2 5.7
2018-Apr-16 01:29N 38°06' E 022°43'3 6.0
2018-Apr-16 01:00N 38°09' E 022°40'5 6.3
2018-Apr-16 00:14N 38°12' E 022°36'  
2018-Apr-13 11:36N 38°08' E 022°41'1 9.5
2018-Apr-13 11:29N 38°07' E 022°42'5 9.4
2018-Apr-13 10:59N 38°04' E 022°46'5 9.3
2018-Apr-13 10:30N 38°01' E 022°50'4 9.2
2018-Apr-13 10:00N 37°58' E 022°55'5 6.3
2018-Apr-13 09:13N 37°55' E 023°00'1 5.1
2018-Apr-13 09:01N 37°55' E 023°01'1 1.6
2018-Apr-13 08:31N 37°54' E 023°02'3 5.3
2018-Apr-13 08:00N 37°53' E 023°05'4 9.0
2018-Apr-13 07:31N 37°51' E 023°10'5 9.3
2018-Apr-13 07:00N 37°47' E 023°13'5 9.3
2018-Apr-13 06:30N 37°44' E 023°16'4 8.7
2018-Apr-13 06:00N 37°40' E 023°19'4 9.1
2018-Apr-13 05:31N 37°39' E 023°25'5 9.1
2018-Apr-13 05:00N 37°38' E 023°30'4 9.1
2018-Apr-13 04:30N 37°38' E 023°36'5 9.3
2018-Apr-13 04:01N 37°38' E 023°42'5 9.4
2018-Apr-13 03:30N 37°37' E 023°48'  
2018-Apr-10 11:50N 38°05' E 024°09'3 8.0
2018-Apr-10 11:27N 38°07' E 024°08'4 0.1
2018-Apr-09 02:02N 38°11' E 024°07'0 5.9
2018-Apr-09 02:01N 38°11' E 024°07'3 5.8
2018-Apr-09 01:30N 38°08' E 024°09'4 6.0
2018-Apr-09 00:55N 38°05' E 024°11'2 6.0
2018-Apr-09 00:30N 38°03' E 024°12'3 5.1
2018-Apr-09 00:00N 38°00' E 024°12'4 4.7
2018-Apr-08 23:12N 37°57' E 024°15'  

Dump ship's entire track history